Time;durP1;ratioP1;P1;durP2;ratioP2;P2;SDS_P1;SDS_P2;PMS_P1;PMS_P2;Temp;Humidity;BMP_temperature;BMP_pressure;BME280_temperature;BME280_humidity;BME280_pressure;Samples;Min_cycle;Max_cycle;Signal;HPM_P1;HPM_P2
2023/09/20 00:02:50;;;;;;;2.73;1.00;;;;;;;16.84;77.33;100322.09;6026244;28;20041;-64
2023/09/20 00:05:49;;;;;;;4.55;0.80;;;;;;;16.88;77.70;100335.91;6025209;28;20068;-65
2023/09/20 00:08:44;;;;;;;3.33;1.23;;;;;;;16.80;78.25;100333.38;6025989;28;20110;-64
2023/09/20 00:11:40;;;;;;;4.73;1.20;;;;;;;16.75;79.18;100341.19;6025664;28;20040;-65
2023/09/20 00:14:36;;;;;;;2.58;1.05;;;;;;;16.69;78.84;100316.00;6025767;28;20034;-65
2023/09/20 00:17:34;;;;;;;2.22;0.90;;;;;;;16.71;79.32;100330.06;6025485;28;20112;-64
2023/09/20 00:20:29;;;;;;;4.80;1.10;;;;;;;16.74;79.73;100331.53;6026226;28;20045;-64
2023/09/20 00:23:24;;;;;;;2.27;1.10;;;;;;;16.73;79.86;100337.88;6025897;28;20031;-64
2023/09/20 00:26:20;;;;;;;4.77;1.00;;;;;;;16.72;80.48;100336.22;6024891;28;20042;-65
2023/09/20 00:29:15;;;;;;;3.13;0.90;;;;;;;16.55;80.98;100331.16;6019753;28;20432;-66
2023/09/20 00:32:10;;;;;;;2.38;0.98;;;;;;;16.59;81.61;100347.66;6025880;28;20022;-64
2023/09/20 00:35:14;;;;;;;3.67;1.10;;;;;;;16.59;81.54;100348.50;6023617;28;20031;-65
2023/09/20 00:38:09;;;;;;;2.92;1.00;;;;;;;16.60;81.85;100339.41;6030434;28;20038;-64
2023/09/20 00:41:06;;;;;;;4.83;1.53;;;;;;;16.70;81.53;100344.47;6025500;28;20165;-64
2023/09/20 00:44:02;;;;;;;5.57;1.20;;;;;;;16.71;81.10;100329.22;6024955;28;20026;-64
2023/09/20 00:46:58;;;;;;;4.38;0.90;;;;;;;16.74;80.93;100329.63;6025136;28;20026;-65
2023/09/20 00:49:53;;;;;;;1.80;1.00;;;;;;;16.72;81.04;100315.63;6024133;28;20041;-64
2023/09/20 00:52:54;;;;;;;2.40;1.00;;;;;;;16.85;81.04;100330.97;6025424;28;20042;-64
2023/09/20 00:55:50;;;;;;;2.95;0.93;;;;;;;16.79;81.15;100315.69;6023360;28;20027;-64
2023/09/20 00:58:45;;;;;;;2.50;1.10;;;;;;;16.71;81.27;100307.81;6025535;28;20077;-64
2023/09/20 01:01:41;;;;;;;4.40;1.00;;;;;;;16.62;82.31;100323.19;6025390;28;20062;-64
2023/09/20 01:04:36;;;;;;;2.88;1.00;;;;;;;16.60;82.81;100334.06;6024688;28;20053;-64
2023/09/20 01:07:32;;;;;;;3.38;1.10;;;;;;;16.48;83.83;100332.94;6025057;28;20092;-64
2023/09/20 01:10:31;;;;;;;6.53;1.40;;;;;;;16.43;84.42;100332.69;6024280;28;20034;-64
2023/09/20 01:13:26;;;;;;;4.43;1.20;;;;;;;16.38;84.65;100315.53;6025062;28;20585;-64
2023/09/20 01:16:21;;;;;;;5.35;1.15;;;;;;;16.43;84.98;100324.66;6037708;28;20034;-64
2023/09/20 01:19:17;;;;;;;3.07;1.00;;;;;;;16.53;84.70;100329.69;6025464;28;20113;-65
2023/09/20 01:22:13;;;;;;;3.80;1.10;;;;;;;16.52;85.57;100333.38;6026302;28;20129;-65
2023/09/20 01:25:11;;;;;;;2.85;1.00;;;;;;;16.48;85.16;100326.75;6024231;28;20067;-65
2023/09/20 01:28:09;;;;;;;5.20;1.20;;;;;;;16.60;84.61;100323.34;6024610;28;20038;-64
2023/09/20 01:31:05;;;;;;;3.78;1.33;;;;;;;16.64;85.09;100326.47;6028350;28;20114;-65
2023/09/20 01:34:00;;;;;;;3.60;1.00;;;;;;;16.69;85.25;100332.06;6029161;28;20037;-65
2023/09/20 01:36:56;;;;;;;4.35;1.02;;;;;;;16.76;84.72;100327.63;6027027;28;20477;-65
2023/09/20 01:39:51;;;;;;;5.32;1.17;;;;;;;16.73;84.76;100321.81;6028765;28;20053;-65
2023/09/20 01:42:50;;;;;;;6.30;1.17;;;;;;;16.76;84.91;100330.28;6029302;28;20041;-64
2023/09/20 01:45:45;;;;;;;2.40;1.15;;;;;;;16.78;84.80;100324.72;6028302;28;20053;-64
2023/09/20 01:48:40;;;;;;;3.73;1.30;;;;;;;16.64;85.30;100313.94;6029237;28;20034;-64
2023/09/20 01:51:36;;;;;;;4.30;1.27;;;;;;;16.76;85.07;100327.63;6029071;28;20258;-64
2023/09/20 01:54:31;;;;;;;5.32;1.20;;;;;;;16.75;85.32;100335.81;6028505;28;20512;-64
2023/09/20 01:57:26;;;;;;;4.90;1.08;;;;;;;16.75;85.56;100333.97;6028336;28;20045;-65
2023/09/20 02:00:28;;;;;;;2.15;0.93;;;;;;;16.78;85.69;100335.44;6028659;28;20034;-64
2023/09/20 02:03:27;;;;;;;4.22;1.02;;;;;;;16.75;85.83;100331.31;6028553;28;20033;-64
2023/09/20 02:06:22;;;;;;;3.70;1.40;;;;;;;16.82;85.48;100342.91;6027889;28;20027;-64
2023/09/20 02:09:18;;;;;;;4.30;1.20;;;;;;;16.74;85.64;100324.28;6028278;28;20108;-64
2023/09/20 02:12:14;;;;;;;7.93;1.70;;;;;;;16.82;85.89;100331.38;6028859;28;20036;-65
2023/09/20 02:15:10;;;;;;;7.13;1.30;;;;;;;16.79;86.15;100327.22;6027704;28;20088;-64
2023/09/20 02:18:08;;;;;;;7.35;1.25;;;;;;;16.66;86.51;100319.91;6028112;28;20034;-64
2023/09/20 02:21:04;;;;;;;4.20;1.40;;;;;;;16.76;86.88;100326.78;6029237;28;20040;-65
2023/09/20 02:24:00;;;;;;;6.40;1.43;;;;;;;16.60;87.00;100311.84;6028464;28;20568;-64
2023/09/20 02:26:55;;;;;;;6.18;1.00;;;;;;;16.62;87.83;100333.88;6027402;28;20030;-64
2023/09/20 02:29:52;;;;;;;3.97;1.00;;;;;;;16.49;88.35;100323.06;6027987;28;20121;-65
2023/09/20 02:32:52;;;;;;;2.30;0.80;;;;;;;16.46;88.89;100326.13;6027944;28;20393;-65
2023/09/20 02:35:48;;;;;;;6.50;1.35;;;;;;;16.38;89.46;100324.41;6024529;28;20118;-64
2023/09/20 02:38:44;;;;;;;5.82;1.35;;;;;;;16.36;90.09;100321.06;6028113;28;20395;-65
2023/09/20 02:41:39;;;;;;;5.87;1.47;;;;;;;16.22;91.35;100330.03;6026892;28;20038;-64
2023/09/20 02:44:35;;;;;;;3.67;1.17;;;;;;;16.04;92.10;100310.91;6026922;28;20050;-65
2023/09/20 02:47:30;;;;;;;6.35;1.25;;;;;;;16.06;92.81;100324.94;6027420;28;20038;-64
2023/09/20 02:50:25;;;;;;;2.43;1.00;;;;;;;15.99;93.52;100324.03;6027504;28;20038;-64
2023/09/20 02:53:21;;;;;;;3.28;1.13;;;;;;;15.97;94.38;100323.41;6027837;28;20496;-64
2023/09/20 02:56:17;;;;;;;6.33;1.30;;;;;;;15.87;94.25;100302.28;6026358;28;20057;-64
2023/09/20 02:59:13;;;;;;;5.00;1.15;;;;;;;15.93;94.50;100319.44;6027420;28;20038;-63
2023/09/20 03:02:10;;;;;;;3.30;1.25;;;;;;;15.80;95.08;100301.41;6027200;28;20061;-64
2023/09/20 03:05:05;;;;;;;5.32;1.20;;;;;;;15.90;95.31;100323.31;6018040;28;20041;-65
2023/09/20 03:08:04;;;;;;;3.10;1.10;;;;;;;15.90;94.77;100317.13;6022546;28;20498;-64
2023/09/20 03:10:59;;;;;;;4.28;1.20;;;;;;;15.91;94.94;100316.97;6022926;28;20042;-64
2023/09/20 03:13:55;;;;;;;3.23;1.30;;;;;;;15.93;94.91;100304.22;6025130;28;20535;-64
2023/09/20 03:16:51;;;;;;;3.17;1.00;;;;;;;15.95;95.19;100307.53;6019719;28;20037;-64
2023/09/20 03:19:53;;;;;;;5.37;1.10;;;;;;;15.94;95.16;100305.88;6028541;28;20502;-64
2023/09/20 03:22:51;;;;;;;2.17;1.15;;;;;;;15.91;95.01;100300.91;6026299;28;20052;-64
2023/09/20 03:25:46;;;;;;;4.15;1.30;;;;;;;16.00;94.72;100309.66;6021884;28;20046;-64
2023/09/20 03:28:43;;;;;;;6.57;1.20;;;;;;;15.93;94.63;100285.50;6026989;28;20065;-64
2023/09/20 03:31:40;;;;;;;3.67;1.25;;;;;;;15.98;94.42;100301.00;6026869;28;20038;-64
2023/09/20 03:34:36;;;;;;;4.32;1.00;;;;;;;16.01;95.12;100296.06;6026174;28;20038;-65
2023/09/20 03:37:32;;;;;;;2.73;1.00;;;;;;;16.04;94.99;100300.19;6025728;28;20033;-64
2023/09/20 03:40:28;;;;;;;3.10;1.23;;;;;;;15.97;95.12;100288.63;6019988;28;20042;-64
2023/09/20 03:43:23;;;;;;;3.50;1.40;;;;;;;16.01;95.32;100304.09;6024560;28;20544;-63
2023/09/20 03:46:19;;;;;;;5.35;1.10;;;;;;;15.89;95.41;100286.06;6024887;28;20034;-64
2023/09/20 03:49:15;;;;;;;3.90;1.33;;;;;;;15.95;95.38;100285.31;6024252;28;20505;-64
2023/09/20 03:52:10;;;;;;;2.88;1.30;;;;;;;16.03;95.95;100309.25;6026054;28;20113;-64
2023/09/20 03:55:07;;;;;;;3.60;1.10;;;;;;;15.90;96.19;100288.56;6020372;28;20022;-64
2023/09/20 03:58:03;;;;;;;4.82;1.50;;;;;;;15.93;96.30;100290.84;6025801;28;20048;-63
2023/09/20 04:01:02;;;;;;;4.25;1.50;;;;;;;15.95;96.20;100290.66;6025618;28;20022;-64
2023/09/20 04:03:58;;;;;;;3.25;1.20;;;;;;;15.96;96.38;100286.97;6026212;28;20041;-64
2023/09/20 04:06:53;;;;;;;4.28;1.20;;;;;;;16.02;95.99;100297.72;6022476;28;20030;-64
2023/09/20 04:09:49;;;;;;;3.72;1.20;;;;;;;15.88;96.63;100279.06;6017150;28;20038;-65
2023/09/20 04:12:47;;;;;;;4.05;1.25;;;;;;;15.90;96.69;100277.00;6016279;28;20062;-64
2023/09/20 04:15:42;;;;;;;3.67;1.30;;;;;;;15.81;97.46;100276.34;6015299;28;20042;-65
2023/09/20 04:18:38;;;;;;;5.35;1.40;;;;;;;15.90;97.76;100290.38;6014631;28;20069;-64
2023/09/20 04:21:33;;;;;;;5.20;1.03;;;;;;;15.83;97.04;100276.13;6026982;28;20042;-65
2023/09/20 04:24:28;;;;;;;3.53;1.07;;;;;;;15.80;97.62;100276.50;6022227;28;20383;-64
2023/09/20 04:27:24;;;;;;;3.43;1.20;;;;;;;15.84;98.04;100293.84;6017219;28;20320;-63
2023/09/20 04:30:19;;;;;;;3.33;1.30;;;;;;;15.82;98.90;100298.53;6023577;28;20286;-64
2023/09/20 04:33:14;;;;;;;4.37;1.40;;;;;;;15.73;98.20;100281.81;6018552;28;20332;-64
2023/09/20 04:36:12;;;;;;;6.27;1.60;;;;;;;15.71;98.64;100277.69;6014786;28;20058;-65
2023/09/20 04:39:07;;;;;;;7.35;1.52;;;;;;;15.75;99.36;100290.47;6015720;28;20100;-64
2023/09/20 04:42:03;;;;;;;5.77;1.67;;;;;;;15.82;98.95;100295.88;6021678;28;20046;-64
2023/09/20 04:44:59;;;;;;;8.48;1.92;;;;;;;15.75;98.76;100278.94;6024351;28;20436;-65
2023/09/20 04:47:56;;;;;;;5.03;1.20;;;;;;;15.64;99.46;100276.75;6024677;28;20069;-64
2023/09/20 04:50:51;;;;;;;6.80;1.27;;;;;;;15.63;99.94;100283.09;6024746;28;20580;-64
2023/09/20 04:53:50;;;;;;;4.33;1.37;;;;;;;15.56;100.00;100284.91;6025305;28;20038;-65
2023/09/20 04:56:47;;;;;;;4.68;1.40;;;;;;;15.51;100.00;100280.13;6010660;28;20041;-64
2023/09/20 04:59:43;;;;;;;3.33;1.30;;;;;;;15.58;100.00;100288.19;6024847;28;20481;-65
2023/09/20 05:02:38;;;;;;;5.80;1.30;;;;;;;15.41;100.00;100275.03;6024803;28;20039;-63
2023/09/20 05:05:34;;;;;;;4.53;1.30;;;;;;;15.45;100.00;100288.84;6022664;28;20066;-66
2023/09/20 05:08:30;;;;;;;4.18;1.42;;;;;;;15.47;100.00;100289.50;6027920;28;20039;-63
2023/09/20 05:11:25;;;;;;;4.55;1.25;;;;;;;15.36;100.00;100277.44;6027588;28;20103;-64
2023/09/20 05:14:20;;;;;;;2.38;1.00;;;;;;;15.44;100.00;100287.19;6029503;28;20056;-64
2023/09/20 05:17:15;;;;;;;4.47;1.67;;;;;;;15.53;100.00;100290.63;6028526;28;20109;-64
2023/09/20 05:20:14;;;;;;;2.80;1.30;;;;;;;15.38;100.00;100283.41;6030512;28;20501;-64
2023/09/20 05:23:09;;;;;;;3.17;1.30;;;;;;;15.48;100.00;100288.50;6028806;28;20042;-65
2023/09/20 05:26:04;;;;;;;3.27;1.43;;;;;;;15.49;100.00;100288.31;6028609;28;20030;-64
2023/09/20 05:29:00;;;;;;;4.17;1.20;;;;;;;15.43;100.00;100275.69;6026816;28;20057;-65
2023/09/20 05:31:56;;;;;;;4.85;1.30;;;;;;;15.38;100.00;100272.72;6028504;28;20034;-64
2023/09/20 05:34:51;;;;;;;2.78;1.40;;;;;;;15.55;100.00;100288.56;6028232;28;20031;-64
2023/09/20 05:37:46;;;;;;;3.65;1.40;;;;;;;15.59;100.00;100289.88;6028557;28;20034;-64
2023/09/20 05:40:43;;;;;;;6.40;1.90;;;;;;;15.62;100.00;100292.16;6017091;28;20070;-65
2023/09/20 05:43:42;;;;;;;6.13;1.70;;;;;;;15.60;100.00;100296.88;6016706;28;20030;-64
2023/09/20 05:46:37;;;;;;;5.70;1.50;;;;;;;15.57;100.00;100300.75;6026456;28;20026;-64
2023/09/20 05:49:33;;;;;;;7.90;2.10;;;;;;;15.51;100.00;100280.13;6028430;28;20580;-64
2023/09/20 05:52:28;;;;;;;3.47;1.40;;;;;;;15.64;100.00;100292.78;6028950;28;20065;-64
2023/09/20 05:55:25;;;;;;;7.65;1.30;;;;;;;15.74;100.00;100290.63;6027655;28;20037;-64
2023/09/20 05:58:20;;;;;;;2.72;1.35;;;;;;;15.92;100.00;100291.06;6028488;28;20474;-64
2023/09/20 06:01:17;;;;;;;3.67;1.57;;;;;;;16.36;99.73;100293.50;6027711;28;20026;-63
2023/09/20 06:04:13;;;;;;;4.68;1.48;;;;;;;16.35;97.94;100281.97;6027804;28;20045;-63
2023/09/20 06:07:09;;;;;;;4.65;1.23;;;;;;;16.51;97.57;100296.91;6028137;28;20516;-64
2023/09/20 06:10:05;;;;;;;5.70;1.70;;;;;;;16.59;97.24;100288.75;6028255;28;20042;-64
2023/09/20 06:13:00;;;;;;;6.05;1.75;;;;;;;16.90;94.68;100291.88;6028369;28;20038;-64
2023/09/20 06:15:55;;;;;;;3.87;1.40;;;;;;;17.16;92.93;100296.53;6021422;28;20042;-65
2023/09/20 06:18:50;;;;;;;7.00;1.50;;;;;;;16.90;92.44;100281.16;6027434;28;20354;-64
2023/09/20 06:21:47;;;;;;;5.60;1.53;;;;;;;16.86;94.32;100305.81;6030444;28;20109;-64
2023/09/20 06:24:46;;;;;;;4.30;1.30;;;;;;;16.87;94.86;100302.13;6027290;28;20280;-64
2023/09/20 06:27:41;;;;;;;3.20;1.45;;;;;;;16.67;95.49;100292.13;6028001;28;20034;-64
2023/09/20 06:30:36;;;;;;;11.82;1.40;;;;;;;16.73;95.41;100311.09;6028094;28;20030;-64
2023/09/20 06:33:32;;;;;;;2.83;1.17;;;;;;;16.61;96.27;100286.72;6024223;28;20042;-64
2023/09/20 06:36:27;;;;;;;3.23;1.20;;;;;;;16.43;96.89;100284.50;6026640;28;20046;-64
2023/09/20 06:39:25;;;;;;;4.70;1.58;;;;;;;16.53;97.20;100300.25;6027566;28;20030;-65
2023/09/20 06:42:21;;;;;;;3.10;1.17;;;;;;;16.46;96.98;100292.16;6027998;28;20038;-64
2023/09/20 06:45:19;;;;;;;4.67;1.63;;;;;;;16.64;97.07;100305.91;6026419;28;20571;-63
2023/09/20 06:48:15;;;;;;;5.32;1.73;;;;;;;16.76;95.92;100290.13;6027089;28;20037;-64
2023/09/20 06:51:11;;;;;;;3.60;1.30;;;;;;;16.82;95.27;100284.00;6027874;28;20038;-64
2023/09/20 06:54:06;;;;;;;3.23;1.10;;;;;;;17.10;94.79;100305.34;6026869;28;20093;-64
2023/09/20 06:57:03;;;;;;;4.00;1.40;;;;;;;17.41;92.16;100284.28;6022137;28;20281;-64
2023/09/20 06:59:58;;;;;;;5.30;1.45;;;;;;;17.51;91.41;100289.25;6013116;28;20414;-64
2023/09/20 07:02:56;;;;;;;2.47;1.43;;;;;;;17.54;91.11;100284.34;6016841;28;20090;-63
2023/09/20 07:05:52;;;;;;;3.00;1.20;;;;;;;17.83;90.01;100301.94;6024103;28;20675;-64
2023/09/20 07:08:47;;;;;;;3.15;1.27;;;;;;;18.23;88.29;100301.00;6022124;28;20035;-64
2023/09/20 07:11:43;;;;;;;5.80;1.13;;;;;;;18.49;85.47;100289.44;6027424;28;20046;-64
2023/09/20 07:14:39;;;;;;;3.50;1.65;;;;;;;18.07;86.28;100276.41;6023352;28;20038;-64
2023/09/20 07:17:35;;;;;;;3.22;1.40;;;;;;;18.32;85.13;100280.13;6022278;28;20393;-64
2023/09/20 07:20:32;;;;;;;4.13;1.10;;;;;;;18.59;84.99;100295.22;6017573;28;20092;-64
2023/09/20 07:23:29;;;;;;;2.95;1.40;;;;;;;18.63;84.92;100287.56;6012737;28;20105;-64
2023/09/20 07:26:26;;;;;;;3.97;1.25;;;;;;;18.73;83.44;100291.47;6026222;28;20064;-64
2023/09/20 07:29:23;;;;;;;8.32;1.75;;;;;;;18.68;83.22;100307.41;6026370;28;20081;-64
2023/09/20 07:32:19;;;;;;;5.63;1.23;;;;;;;18.88;82.67;100292.09;6027050;28;20389;-64
2023/09/20 07:35:27;;;;;;;5.07;1.60;;;;;;;19.04;82.70;100301.56;6025654;28;20046;-64
2023/09/20 07:38:26;;;;;;;4.32;1.30;;;;;;;18.92;80.72;100285.25;6026688;28;20022;-64
2023/09/20 07:41:21;;;;;;;6.25;1.58;;;;;;;19.17;80.25;100279.19;6026653;28;20493;-64
2023/09/20 07:44:17;;;;;;;4.95;1.70;;;;;;;18.98;81.25;100294.34;6026141;28;20045;-64
2023/09/20 07:47:13;;;;;;;2.75;1.10;;;;;;;19.14;81.93;100304.63;6025765;28;20077;-64
2023/09/20 07:50:11;;;;;;;5.60;1.30;;;;;;;19.29;81.72;100301.69;6025942;28;20482;-64
2023/09/20 07:53:11;;;;;;;4.03;1.30;;;;;;;19.12;80.95;100295.13;6026554;28;20026;-64
2023/09/20 07:56:11;;;;;;;6.22;1.40;;;;;;;19.29;79.84;100299.00;6024474;28;20489;-65
2023/09/20 07:59:06;;;;;;;5.30;1.15;;;;;;;19.57;78.46;100294.97;6026092;28;20030;-65
2023/09/20 08:02:03;;;;;;;3.80;1.07;;;;;;;19.67;78.56;100273.00;6026168;28;20033;-64
2023/09/20 08:04:59;;;;;;;3.95;1.35;;;;;;;19.97;76.75;100284.81;6025217;28;20030;-65
2023/09/20 08:07:54;;;;;;;2.08;1.10;;;;;;;20.31;75.95;100285.41;6026156;28;20034;-65
2023/09/20 08:10:49;;;;;;;4.13;1.23;;;;;;;20.42;74.49;100274.75;6025853;28;20520;-64
2023/09/20 08:13:45;;;;;;;3.97;1.10;;;;;;;20.30;74.54;100263.03;6026230;28;20049;-64
2023/09/20 08:16:42;;;;;;;4.43;1.30;;;;;;;20.49;73.52;100285.47;6024600;28;20037;-64
2023/09/20 08:19:37;;;;;;;3.65;1.08;;;;;;;20.56;73.65;100270.06;6026618;28;20405;-64
2023/09/20 09:01:48;;;;;;;3.42;1.30;;;;;;;21.77;67.66;100289.81;6030357;28;20030;-65
2023/09/20 09:04:45;;;;;;;3.80;1.30;;;;;;;21.76;69.38;100296.28;6028302;28;20478;-64
2023/09/20 09:07:40;;;;;;;3.88;1.20;;;;;;;21.78;68.44;100300.41;6028224;28;20046;-65
2023/09/20 09:10:35;;;;;;;2.07;1.10;;;;;;;21.88;67.61;100283.66;6029892;28;20151;-65
2023/09/20 09:13:30;;;;;;;2.33;1.10;;;;;;;22.18;66.67;100276.34;6029026;28;20305;-64
2023/09/20 09:16:33;;;;;;;2.63;1.07;;;;;;;22.51;64.08;100284.72;6029220;28;20062;-65
2023/09/20 09:19:29;;;;;;;4.38;1.40;;;;;;;22.62;64.82;100284.97;6029624;28;20400;-65
2023/09/20 09:22:24;;;;;;;6.07;1.40;;;;;;;22.62;63.72;100274.16;6034070;28;20038;-65
2023/09/20 09:25:25;;;;;;;2.78;1.20;;;;;;;22.15;64.96;100295.72;6028979;28;20030;-65
2023/09/20 09:28:21;;;;;;;3.00;1.25;;;;;;;22.14;64.23;100282.44;6029204;28;20034;-65
2023/09/20 09:31:16;;;;;;;2.67;1.27;;;;;;;22.81;62.12;100292.75;6029704;28;20120;-65
2023/09/20 09:34:12;;;;;;;4.00;1.40;;;;;;;23.02;62.10;100280.50;6029128;28;20053;-65
2023/09/20 09:37:08;;;;;;;3.75;1.20;;;;;;;23.06;60.36;100276.28;6023593;28;20026;-65
2023/09/20 09:40:05;;;;;;;3.70;1.27;;;;;;;22.45;62.07;100274.03;6015262;28;20367;-65
2023/09/20 09:43:25;;;;;;;3.22;1.02;;;;;;;22.65;61.12;100284.53;6021149;28;20031;-65
2023/09/20 09:46:21;;;;;;;3.80;1.20;;;;;;;22.31;62.02;100278.03;6025546;28;20038;-65
2023/09/20 09:49:18;;;;;;;4.80;1.13;;;;;;;22.03;62.79;100275.97;6042919;28;20037;-65
2023/09/20 09:52:16;;;;;;;3.63;1.17;;;;;;;22.12;63.79;100273.75;6028556;28;20058;-66
2023/09/20 09:55:11;;;;;;;3.15;1.13;;;;;;;22.12;64.15;100269.19;6025842;28;20049;-65
2023/09/20 09:58:09;;;;;;;2.85;1.20;;;;;;;22.18;62.07;100262.84;6020907;28;20034;-65
2023/09/20 10:01:05;;;;;;;3.60;1.00;;;;;;;22.28;63.35;100241.50;6029031;28;20458;-65
2023/09/20 10:04:05;;;;;;;3.88;1.33;;;;;;;22.48;61.18;100258.16;6036123;28;20031;-65
2023/09/20 10:07:10;;;;;;;2.35;1.30;;;;;;;22.42;61.69;100261.81;6028548;28;20058;-65
2023/09/20 10:10:13;;;;;;;3.10;1.10;;;;;;;22.60;59.83;100254.66;6020976;28;20034;-65
2023/09/20 10:13:14;;;;;;;7.32;1.10;;;;;;;22.53;61.41;100241.22;6028538;28;20409;-65
2023/09/20 10:16:10;;;;;;;4.15;1.27;;;;;;;22.63;61.05;100259.59;6026613;28;20077;-65
2023/09/20 10:19:13;;;;;;;3.83;1.10;;;;;;;22.58;61.40;100264.88;6028676;28;20105;-65
2023/09/20 10:22:10;;;;;;;2.60;1.02;;;;;;;22.97;60.22;100245.22;6033105;28;20546;-65
2023/09/20 10:25:27;;;;;;;4.03;1.20;;;;;;;23.11;61.20;100252.84;6027050;28;20054;-66
2023/09/20 10:28:24;;;;;;;2.15;0.90;;;;;;;23.26;60.20;100246.94;6018735;28;20027;-64
2023/09/20 10:31:20;;;;;;;4.22;1.10;;;;;;;23.60;59.08;100240.59;6018113;28;20034;-65
2023/09/20 10:34:19;;;;;;;4.57;1.17;;;;;;;23.53;60.36;100237.22;6008478;28;20049;-65
2023/09/20 10:37:17;;;;;;;3.30;1.10;;;;;;;23.34;59.72;100235.72;6012374;28;20494;-65
2023/09/20 10:40:21;;;;;;;4.93;1.50;;;;;;;23.58;59.79;100248.13;6019508;28;20124;-65
2023/09/20 10:43:41;;;;;;;3.28;1.38;;;;;;;23.57;58.84;100238.38;6018168;28;20038;-65
2023/09/20 10:46:37;;;;;;;3.47;1.13;;;;;;;23.37;59.81;100251.50;6018423;28;20553;-65
2023/09/20 10:49:52;;;;;;;3.25;1.10;;;;;;;23.55;59.09;100237.78;6027606;28;20030;-65
2023/09/20 10:52:56;;;;;;;3.55;1.33;;;;;;;23.55;60.14;100243.22;6027167;28;20409;-65
2023/09/20 10:55:51;;;;;;;2.08;1.00;;;;;;;23.60;59.03;100237.88;6026637;28;20397;-66
2023/09/20 10:58:48;;;;;;;3.23;1.10;;;;;;;23.69;59.10;100252.69;6027381;28;20042;-65
2023/09/20 11:01:51;;;;;;;2.90;1.20;;;;;;;22.97;60.68;100212.75;6026482;28;20478;-65
2023/09/20 11:04:48;;;;;;;2.55;1.05;;;;;;;22.94;62.09;100243.81;6027221;28;20026;-65
2023/09/20 11:07:43;;;;;;;1.55;0.73;;;;;;;22.67;62.60;100221.06;6027153;28;20030;-65
2023/09/20 11:10:40;;;;;;;5.63;1.13;;;;;;;22.51;63.31;100222.56;6017886;28;20038;-65
2023/09/20 11:13:35;;;;;;;2.30;0.95;;;;;;;22.53;65.11;100225.84;6026475;28;20031;-65
2023/09/20 11:16:30;;;;;;;5.43;1.03;;;;;;;22.71;64.69;100224.13;6018145;28;20073;-66
2023/09/20 11:19:26;;;;;;;3.87;1.30;;;;;;;22.68;64.23;100221.88;6026965;28;20109;-65
2023/09/20 11:22:22;;;;;;;3.90;0.93;;;;;;;22.71;63.73;100216.81;6032362;28;20052;-65
2023/09/20 11:25:17;;;;;;;3.40;1.17;;;;;;;22.89;64.29;100213.13;6031813;28;20125;-65
2023/09/20 11:28:14;;;;;;;2.28;0.98;;;;;;;22.70;63.09;100217.03;6027129;28;20474;-66
2023/09/20 11:31:41;;;;;;;3.45;1.00;;;;;;;22.48;65.24;100214.09;6026848;28;20022;-65
2023/09/20 11:34:44;;;;;;;4.05;1.17;;;;;;;22.46;66.37;100221.63;5988246;28;20105;-65
2023/09/20 11:37:40;;;;;;;5.13;1.33;;;;;;;22.71;65.89;100226.81;6026267;28;20023;-65
2023/09/20 11:40:37;;;;;;;2.78;1.00;;;;;;;22.73;65.78;100230.09;6026682;28;20049;-65
2023/09/20 11:43:32;;;;;;;4.70;1.10;;;;;;;22.51;65.06;100213.63;6026202;28;20038;-65
2023/09/20 11:46:30;;;;;;;2.22;0.95;;;;;;;22.47;65.59;100229.50;6025899;28;20394;-65
2023/09/20 11:49:27;;;;;;;3.30;1.30;;;;;;;22.38;65.97;100225.50;6026517;28;20386;-65
2023/09/20 11:52:24;;;;;;;2.45;1.00;;;;;;;22.57;66.59;100226.22;6026291;28;20030;-66
2023/09/20 11:55:20;;;;;;;3.38;1.27;;;;;;;22.78;64.86;100213.97;6029505;28;20124;-65
2023/09/20 11:58:22;;;;;;;4.28;1.30;;;;;;;23.32;63.50;100231.63;6017891;28;20105;-64
2023/09/20 12:01:23;;;;;;;2.78;0.93;;;;;;;23.86;59.37;100228.31;6019899;28;20431;-65
2023/09/20 12:04:18;;;;;;;3.70;1.00;;;;;;;23.86;59.15;100227.50;6025930;28;20026;-65
2023/09/20 12:07:13;;;;;;;4.90;1.75;;;;;;;24.25;57.51;100234.69;6025946;28;20092;-65
2023/09/20 12:10:09;;;;;;;3.55;0.93;;;;;;;24.30;56.29;100221.22;6020792;28;20038;-65
2023/09/20 12:13:04;;;;;;;2.20;1.02;;;;;;;24.60;56.49;100224.38;6025186;28;20030;-66
2023/09/20 12:16:00;;;;;;;3.20;1.10;;;;;;;24.67;56.03;100219.63;6024961;28;20034;-65
2023/09/20 12:18:55;;;;;;;3.30;0.80;;;;;;;25.08;55.55;100212.84;6025863;28;20019;-65
2023/09/20 12:21:51;;;;;;;2.25;0.93;;;;;;;25.55;53.77;100221.28;6030892;28;20048;-65
2023/09/20 12:24:46;;;;;;;3.58;1.00;;;;;;;25.56;53.93;100227.53;6025684;28;20026;-66
2023/09/20 12:27:48;;;;;;;5.67;1.20;;;;;;;25.46;53.64;100201.06;6025223;28;20034;-65
2023/09/20 12:30:44;;;;;;;3.78;1.10;;;;;;;25.14;53.25;100205.59;6025757;28;20035;-66
2023/09/20 12:33:40;;;;;;;2.43;0.90;;;;;;;25.13;53.19;100190.38;6025197;28;20089;-66
2023/09/20 12:36:35;;;;;;;2.63;0.98;;;;;;;25.09;53.03;100206.34;6017697;28;20145;-65
2023/09/20 12:39:30;;;;;;;2.70;1.00;;;;;;;24.80;55.19;100197.56;6011187;28;20042;-65
2023/09/20 12:42:27;;;;;;;2.50;1.00;;;;;;;25.01;54.74;100197.81;6001941;28;20035;-66
2023/09/20 12:45:24;;;;;;;3.22;1.05;;;;;;;25.27;53.32;100186.19;6006908;28;20280;-65
2023/09/20 12:48:19;;;;;;;3.50;1.10;;;;;;;25.09;52.72;100194.66;6010257;28;20042;-65
2023/09/20 12:51:15;;;;;;;2.42;1.08;;;;;;;24.37;55.12;100204.78;6009405;28;20035;-65
2023/09/20 12:54:10;;;;;;;1.65;0.82;;;;;;;24.51;56.00;100171.66;6012028;28;20034;-65
2023/09/20 12:57:06;;;;;;;2.77;0.80;;;;;;;24.47;54.48;100183.25;6023669;28;20035;-65
2023/09/20 13:00:02;;;;;;;1.85;0.80;;;;;;;24.39;54.88;100189.91;6009858;28;20027;-65
2023/09/20 13:02:59;;;;;;;2.25;0.85;;;;;;;24.49;54.73;100173.78;6012242;28;20023;-65
2023/09/20 13:05:55;;;;;;;1.77;1.02;;;;;;;24.50;55.46;100172.72;6010311;28;20432;-65
2023/09/20 13:08:50;;;;;;;3.90;0.98;;;;;;;24.79;54.16;100173.41;6014046;28;20038;-65
2023/09/20 13:11:46;;;;;;;1.50;0.87;;;;;;;24.50;55.80;100167.31;6022320;28;20525;-65
2023/09/20 13:14:42;;;;;;;4.45;1.25;;;;;;;24.54;56.46;100165.72;6024533;28;20034;-66
2023/09/20 13:17:37;;;;;;;3.80;0.95;;;;;;;24.71;55.80;100154.81;6020350;28;20503;-65
2023/09/20 13:20:35;;;;;;;4.82;1.02;;;;;;;25.04;54.70;100148.47;6029081;28;20099;-65
2023/09/20 13:23:30;;;;;;;2.00;0.90;;;;;;;24.96;55.39;100159.78;6021208;28;20031;-66
2023/09/20 13:26:26;;;;;;;2.20;0.98;;;;;;;25.09;54.14;100148.50;6018416;28;20553;-65
2023/09/20 13:29:22;;;;;;;6.00;1.30;;;;;;;24.98;53.88;100144.03;6020503;28;20034;-65
2023/09/20 13:32:18;;;;;;;3.33;1.35;;;;;;;24.38;56.04;100144.88;6016098;28;20034;-65
2023/09/20 13:35:15;;;;;;;2.55;1.05;;;;;;;23.90;57.72;100137.38;6028767;28;20058;-66
2023/09/20 13:38:13;;;;;;;3.20;1.00;;;;;;;23.95;58.46;100129.31;6024678;28;20038;-65
2023/09/20 13:41:11;;;;;;;3.28;1.20;;;;;;;24.38;58.06;100152.22;6025627;28;20494;-65
2023/09/20 13:44:08;;;;;;;4.28;1.35;;;;;;;24.58;56.56;100131.63;6028109;28;20035;-65
2023/09/20 13:47:06;;;;;;;2.88;1.10;;;;;;;25.08;56.06;100144.19;6021773;28;20034;-65
2023/09/20 13:50:04;;;;;;;2.65;1.30;;;;;;;25.24;54.49;100127.81;6028496;28;20059;-65
2023/09/20 13:53:00;;;;;;;3.28;1.10;;;;;;;25.47;53.80;100137.53;6026492;28;20401;-65
2023/09/20 13:56:02;;;;;;;2.97;1.23;;;;;;;25.85;52.58;100121.03;6026977;28;20034;-66
2023/09/20 13:58:57;;;;;;;3.72;1.30;;;;;;;25.33;54.15;100118.09;6026191;28;20030;-66
2023/09/20 14:01:53;;;;;;;2.13;0.80;;;;;;;25.97;54.03;100126.28;6025437;28;20034;-65
2023/09/20 14:04:48;;;;;;;3.78;1.10;;;;;;;26.11;51.97;100115.78;6017908;28;20054;-65
2023/09/20 14:07:46;;;;;;;5.90;1.30;;;;;;;25.71;52.72;100117.09;6013982;28;20033;-65
2023/09/20 14:10:41;;;;;;;2.97;1.10;;;;;;;25.84;52.77;100127.56;6017059;28;20106;-65
2023/09/20 14:13:38;;;;;;;2.13;0.98;;;;;;;25.66;53.43;100117.06;6009217;28;20035;-65
2023/09/20 14:16:34;;;;;;;2.88;1.10;;;;;;;25.49;53.51;100102.81;6012928;28;20066;-65
2023/09/20 14:19:30;;;;;;;3.00;1.20;;;;;;;24.75;54.23;100090.88;6022206;28;20033;-65
2023/09/20 14:22:25;;;;;;;1.50;1.02;;;;;;;24.38;55.92;100106.13;6027271;28;20041;-65